Nearby METAR Reports

 

KIAG - Niagara Falls, New York, USA
Distance from station: W 12mi, 20km
Updated: 08/12/2022 6:53pm
Clear
Clear
 Wind from N
Wind: N 5 mph , 7 km/h
Temperature: 77°F , 25°C
Dew Point: 45°F , 7°C
Humidity: 32%
Barometer: 1020.3 hPa
Clouds: Clear
Visibility: 10 miles , 16 km
2022/08/12 22:53 KIAG 122253Z 01004KT 10SM CLR 25/07 A3013 RMK AO2 SLP199 T02500072
KBUF - Buffalo/Cheektow, New York, USA
Distance from station: S 13mi, 21km
Updated: 08/12/2022 6:54pm
Few Clouds
Few Clouds
 Wind from NNW
Wind: NNW 9 mph , 15 km/h
Temperature: 75°F , 24°C
Dew Point: 43°F , 6°C
Humidity: 31%
Barometer: 1020.3 hPa
Clouds: Few Clouds
Visibility: 10 miles , 16 km
Cloud details: Few Clouds 27000 ft
2022/08/12 22:54 KBUF 122254Z 34008KT 10SM FEW270 24/06 A3013 RMK AO2 SLP202 T02390056
 
KROC - Rochester, New York, USA
Distance from station: E 51mi, 82km
Updated: 08/12/2022 6:54pm
Clear
Clear
 Wind from NW
Wind: NW 10 mph , 17 km/h
Temperature: 75°F , 24°C
Dew Point: 41°F , 5°C
Humidity: 29%
Barometer: 1020.3 hPa
Clouds: Clear
Visibility: 10 miles , 16 km
2022/08/12 22:54 KROC 122254Z 31009KT 10SM CLR 24/05 A3013 RMK AO2 SLP205 T02390050
CYSN - St. Catharines A, Ontario, Canada
Distance from station: WNW 25mi, 40km
Updated: 08/12/2022 7:00pm
Few Clouds
Few Clouds
 Wind from N
Wind: N 5 mph , 7 km/h
Temperature: 75°F , 24°C
Dew Point: 45°F , 7°C
Humidity: 34%
Barometer: 1019.6 hPa
Clouds: Few Clouds
Visibility: 15 miles , 24 km
Cloud details: Few Clouds 25000 ft
2022/08/12 23:00 CYSN 122300Z 36004KT 340V040 15SM FEW250 24/07 A3011 RMK CI1 CI TR SLP199 DENSITY ALT 1300FT
 
KOLE - Olean, New York, USA
Distance from station: SSE 63mi, 102km
Updated: 08/12/2022 7:15pm
Clear
Clear
 Wind from NNW
Wind: NNW 7 mph , 11 km/h
Temperature: 64°F , 18°C
Dew Point: 37°F , 3°C
Humidity: 37%
Barometer: 1022 hPa
Clouds: Clear
Visibility: 10 miles , 16 km
2022/08/12 23:15 KOLE 122315Z AUTO 34006KT 10SM CLR 18/03 A3018 RMK AO2
KJHW - Jamestown, New York, USA
Distance from station: SSW 74mi, 119km
Updated: 08/12/2022 6:56pm
Clear
Clear
 Wind from N
Wind: N 9 mph , 15 km/h
Temperature: 70°F , 21°C
Dew Point: 43°F , 6°C
Humidity: 38%
Barometer: 1022.4 hPa
Clouds: Clear
Visibility: 10 miles , 16 km
2022/08/12 22:56 KJHW 122256Z AUTO 35008KT 10SM CLR 21/06 A3019 RMK AO2 SLP221 T02060061
 
CWWZ - Port Weller (mar, Ontario, Canada
Distance from station: WNW 28mi, 45km
Updated: 08/12/2022 7:00pm

 Wind from calm
Wind: Calm
Temperature: 73°F , 23°C
Dew Point: 48°F , 9°C
Humidity: 41%
2022/08/12 23:00 CWWZ 122300Z AUTO 00000KT 23/09 RMK AO1 SLP204 T02330086 56011
CWPC - Port Colborne(Au, Ontario, Canada
Distance from station: WSW 33mi, 53km
Updated: 08/12/2022 7:00pm

 Wind from W
Wind: W 16 mph , 26 km/h
Temperature: 72°F , 22°C
Dew Point: 52°F , 11°C
Humidity: 50%
2022/08/12 23:00 CWPC 122300Z AUTO 28014KT 22/11 RMK AO1 SLP215 T02230108 56009
 
CXVN - Vineland (au8), Ontario, Canada
Distance from station: W 36mi, 58km
Updated: 08/12/2022 7:00pm

 Wind from NNE
Wind: NNE 5 mph , 7 km/h
Temperature: 75°F , 24°C
Dew Point: 45°F , 7°C
Humidity: 34%
2022/08/12 23:00 CXVN 122300Z AUTO 03004KT 24/07 RMK AO1 SLP197 T02420069 56009
CYTZ - Toronto Il Vor, Ontario, Canada
Distance from station: NW 50mi, 81km
Updated: 08/12/2022 7:00pm
Clear
Clear
 Wind from NW
Wind: NW 7 mph , 11 km/h, Gust: 21 mph , 33 km/h
Temperature: 77°F , 25°C
Dew Point: 41°F , 5°C
Humidity: 28%
Barometer: 1020 hPa
Clouds: Clear
Visibility: 9 miles , 14 km
2022/08/12 23:00 CYTZ 122300Z AUTO 31006G18KT 240V040 9SM CLR 25/05 A3012 RMK SLP201 DENSITY ALT 1200FT
 
CXTO - Toronto City, Ontario, Canada
Distance from station: NW 52mi, 84km
Updated: 08/12/2022 7:00pm

 
Temperature: 72°F , 22°C
Dew Point: 52°F , 11°C
Humidity: 50%
2022/08/12 23:00 CXTO 122300Z AUTO 22/11 RMK AO1 SLP170 T02240110 53003
KDKK - Dunkirk, New York, USA
Distance from station: SW 52mi, 84km
Updated: 08/12/2022 6:53pm
Clear
Clear
 Wind from W
Wind: W 6 mph , 9 km/h
Temperature: 73°F , 23°C
Dew Point: 46°F , 8°C
Humidity: 38%
Barometer: 1021 hPa
Clouds: Clear
Visibility: 10 miles , 16 km
2022/08/12 22:53 KDKK 122253Z AUTO 28005KT 10SM CLR 23/08 A3015 RMK AO2 SLP207 T02330078 $
 
CYOO - Oshawa, Ontario, Canada
Distance from station: N 56mi, 90km
Updated: 08/12/2022 7:00pm
Clear
Clear
 Wind from NNW
Wind: NNW 10 mph , 17 km/h, Gust: 17 mph , 28 km/h
Temperature: 73°F , 23°C
Dew Point: 45°F , 7°C
Humidity: 36%
Barometer: 1020 hPa
Clouds: Clear
Visibility: 9 miles , 14 km
2022/08/12 23:00 CYOO 122300Z AUTO 33009G15KT 9SM CLR 23/07 A3012 RMK SLP202 DENSITY ALT 1400FT
CWWB - Burlington Piers, Ontario, Canada
Distance from station: WNW 56mi, 91km
Updated: 08/12/2022 7:00pm

 Wind from ESE
Wind: ESE 5 mph , 7 km/h
Temperature: 72°F , 22°C
Dew Point: 61°F , 16°C
Humidity: 69%
2022/08/12 23:00 CWWB 122300Z AUTO 12004KT 22/16 RMK AO1 SLP202 T02160155 56006
 
CYYZ - Toronto/Pearson, Ontario, Canada
Distance from station: NW 60mi, 96km
Updated: 08/12/2022 7:00pm
Few Clouds
Few Clouds
 Wind from NNE
Wind: NNE 13 mph , 20 km/h, Gust: 18 mph , 30 km/h
Temperature: 73°F , 23°C
Dew Point: 39°F , 4°C
Humidity: 29%
Barometer: 1020.3 hPa
Clouds: Few Clouds
Visibility: 15 miles , 24 km
Cloud details: Few Clouds 5000 ft
Few Clouds 25000 ft
2022/08/12 23:00 CYYZ 122300Z 02011G16KT 15SM FEW050 FEW250 23/04 A3013 RMK CF1CI1 CF TR CI TR SLP206 DENSITY ALT 1400FT
CYKZ - Toronto Buttonvi, Ontario, Canada
Distance from station: NW 62mi, 99km
Updated: 01/03/2019 4:00am
NOT Current
Partly cloudy
Partly cloudy
 Wind from WSW
Wind: WSW 5 mph , 7 km/h
Temperature: 27°F , -3°C
Wind Chill: 21°F , -6°C
Dew Point: 23°F , -5°C
Humidity: 86%
Barometer: 1010.8 hPa
Clouds: Partly cloudy
Visibility: 15 miles , 24 km
Cloud details: Partly cloudy 4000 ft
2019/01/03 09:00 CYKZ 030900Z 25004KT 15SM SCT040 M03/M05 A2985 RMK SC3 LAST STFD OBS FAREWELL SLP118
 
CXHM - Hamilton Rbg Cs, Ontario, Canada
Distance from station: W 62mi, 100km
Updated: 08/12/2022 7:00pm

 Wind from E
Wind: E 5 mph , 7 km/h
Temperature: 75°F , 24°C
Dew Point: 43°F , 6°C
Humidity: 31%
2022/08/12 23:00 CXHM 122300Z AUTO 08004KT 24/06 RMK AO1 SLP199 T02430060 56006
KDSV - Dansville, New York, USA
Distance from station: SE 62mi, 100km
Updated: 08/12/2022 6:54pm
Clear
Clear
 Wind from NNW
Wind: NNW 10 mph , 17 km/h
Temperature: 75°F , 24°C
Dew Point: 45°F , 7°C
Humidity: 34%
Barometer: 1020.7 hPa
Clouds: Clear
Visibility: 10 miles , 16 km
2022/08/12 22:54 KDSV 122254Z AUTO 34009KT 10SM CLR 24/07 A3014 RMK AO2 SLP213 T02390067
 
CYHM - Hamilton Airport, Ontario, Canada
Distance from station: W 63mi, 101km
Updated: 08/12/2022 7:00pm
Few Clouds
Few Clouds
 Wind from NNW
Wind: NNW 8 mph , 13 km/h
Temperature: 75°F , 24°C
Dew Point: 43°F , 6°C
Humidity: 31%
Barometer: 1020.3 hPa
Clouds: Few Clouds
Visibility: 15 miles , 24 km
Cloud details: Few Clouds 7500 ft
Few Clouds 24000 ft
2022/08/12 23:00 CYHM 122300Z 33007KT 15SM FEW075 FEW240 24/06 A3013 RMK CF1CI1 CF TR SLP204 DENSITY ALT 1800FT
CWNC - Cobourg (mars), Ontario, Canada
Distance from station: NNE 63mi, 102km
Updated: 08/12/2022 7:00pm

 Wind from NNW
Wind: NNW 7 mph , 11 km/h
Temperature: 75°F , 24°C
Dew Point: 43°F , 6°C
Humidity: 31%
2022/08/12 23:00 CWNC 122300Z AUTO 33006KT 24/06 RMK AO1 6005 SLP195 T02430063 50006